sensor_id;sensor_type;location;lat;lon;timestamp;P1;durP1;ratioP1;P2;durP2;ratioP2
9481;SDS011;4779;48.062;11.672;2023-05-10T00:01:23;1.90;;;1.10;;
9481;SDS011;4779;48.062;11.672;2023-05-10T00:03:50;1.13;;;0.80;;
9481;SDS011;4779;48.062;11.672;2023-05-10T00:06:17;0.60;;;0.60;;
9481;SDS011;4779;48.062;11.672;2023-05-10T00:08:46;2.08;;;1.00;;
9481;SDS011;4779;48.062;11.672;2023-05-10T00:11:13;0.77;;;0.60;;
9481;SDS011;4779;48.062;11.672;2023-05-10T00:13:39;1.75;;;0.77;;
9481;SDS011;4779;48.062;11.672;2023-05-10T00:16:06;0.93;;;0.90;;
9481;SDS011;4779;48.062;11.672;2023-05-10T00:18:33;0.70;;;0.70;;
9481;SDS011;4779;48.062;11.672;2023-05-10T00:21:00;0.75;;;0.70;;
9481;SDS011;4779;48.062;11.672;2023-05-10T00:23:27;1.08;;;0.70;;
9481;SDS011;4779;48.062;11.672;2023-05-10T00:25:55;0.80;;;0.80;;
9481;SDS011;4779;48.062;11.672;2023-05-10T00:28:22;1.23;;;0.90;;
9481;SDS011;4779;48.062;11.672;2023-05-10T00:30:49;1.17;;;0.75;;
9481;SDS011;4779;48.062;11.672;2023-05-10T00:33:16;0.70;;;0.70;;
9481;SDS011;4779;48.062;11.672;2023-05-10T00:35:43;0.77;;;0.50;;
9481;SDS011;4779;48.062;11.672;2023-05-10T00:38:10;1.00;;;0.65;;
9481;SDS011;4779;48.062;11.672;2023-05-10T00:40:37;2.08;;;0.82;;
9481;SDS011;4779;48.062;11.672;2023-05-10T00:45:43;1.00;;;0.90;;
9481;SDS011;4779;48.062;11.672;2023-05-10T00:48:10;0.70;;;0.70;;
9481;SDS011;4779;48.062;11.672;2023-05-10T00:50:37;1.38;;;0.60;;
9481;SDS011;4779;48.062;11.672;2023-05-10T00:53:05;1.00;;;0.90;;
9481;SDS011;4779;48.062;11.672;2023-05-10T00:55:32;0.70;;;0.70;;
9481;SDS011;4779;48.062;11.672;2023-05-10T00:57:59;0.70;;;0.70;;
9481;SDS011;4779;48.062;11.672;2023-05-10T01:00:26;0.80;;;0.52;;
9481;SDS011;4779;48.062;11.672;2023-05-10T01:02:56;1.40;;;0.60;;
9481;SDS011;4779;48.062;11.672;2023-05-10T01:05:23;1.55;;;0.50;;
9481;SDS011;4779;48.062;11.672;2023-05-10T01:07:49;0.95;;;0.60;;
9481;SDS011;4779;48.062;11.672;2023-05-10T01:10:17;0.85;;;0.70;;
9481;SDS011;4779;48.062;11.672;2023-05-10T01:12:44;0.68;;;0.68;;
9481;SDS011;4779;48.062;11.672;2023-05-10T01:15:13;0.50;;;0.50;;
9481;SDS011;4779;48.062;11.672;2023-05-10T01:17:42;1.15;;;0.63;;
9481;SDS011;4779;48.062;11.672;2023-05-10T01:20:13;1.15;;;0.70;;
9481;SDS011;4779;48.062;11.672;2023-05-10T01:28:58;0.60;;;0.60;;
9481;SDS011;4779;48.062;11.672;2023-05-10T01:32:01;0.60;;;0.57;;
9481;SDS011;4779;48.062;11.672;2023-05-10T01:34:35;0.70;;;0.68;;
9481;SDS011;4779;48.062;11.672;2023-05-10T01:37:09;0.50;;;0.50;;
9481;SDS011;4779;48.062;11.672;2023-05-10T01:39:43;0.63;;;0.55;;
9481;SDS011;4779;48.062;11.672;2023-05-10T01:42:14;2.50;;;0.57;;
9481;SDS011;4779;48.062;11.672;2023-05-10T01:44:46;0.70;;;0.70;;
9481;SDS011;4779;48.062;11.672;2023-05-10T01:47:30;0.47;;;0.47;;
9481;SDS011;4779;48.062;11.672;2023-05-10T01:50:04;0.60;;;0.60;;
9481;SDS011;4779;48.062;11.672;2023-05-10T01:52:36;0.57;;;0.57;;
9481;SDS011;4779;48.062;11.672;2023-05-10T01:55:08;0.73;;;0.60;;
9481;SDS011;4779;48.062;11.672;2023-05-10T01:57:37;1.38;;;0.60;;
9481;SDS011;4779;48.062;11.672;2023-05-10T02:00:06;0.77;;;0.50;;
9481;SDS011;4779;48.062;11.672;2023-05-10T02:02:37;1.20;;;0.60;;
9481;SDS011;4779;48.062;11.672;2023-05-10T02:05:07;0.73;;;0.45;;
9481;SDS011;4779;48.062;11.672;2023-05-10T02:07:35;1.50;;;0.55;;
9481;SDS011;4779;48.062;11.672;2023-05-10T02:10:03;0.45;;;0.45;;
9481;SDS011;4779;48.062;11.672;2023-05-10T02:12:32;0.55;;;0.50;;
9481;SDS011;4779;48.062;11.672;2023-05-10T02:15:04;1.40;;;0.70;;
9481;SDS011;4779;48.062;11.672;2023-05-10T02:17:33;0.93;;;0.70;;
9481;SDS011;4779;48.062;11.672;2023-05-10T02:20:03;2.42;;;0.90;;
9481;SDS011;4779;48.062;11.672;2023-05-10T02:22:34;0.98;;;0.70;;
9481;SDS011;4779;48.062;11.672;2023-05-10T02:25:03;0.82;;;0.82;;
9481;SDS011;4779;48.062;11.672;2023-05-10T02:27:31;0.90;;;0.80;;
9481;SDS011;4779;48.062;11.672;2023-05-10T02:29:58;1.17;;;0.82;;
9481;SDS011;4779;48.062;11.672;2023-05-10T02:32:26;1.77;;;0.93;;
9481;SDS011;4779;48.062;11.672;2023-05-10T02:34:53;0.60;;;0.60;;
9481;SDS011;4779;48.062;11.672;2023-05-10T02:37:23;1.92;;;0.70;;
9481;SDS011;4779;48.062;11.672;2023-05-10T02:39:52;1.30;;;0.55;;
9481;SDS011;4779;48.062;11.672;2023-05-10T02:42:22;0.90;;;0.68;;
9481;SDS011;4779;48.062;11.672;2023-05-10T02:44:52;0.75;;;0.55;;
9481;SDS011;4779;48.062;11.672;2023-05-10T02:47:22;1.30;;;0.63;;
9481;SDS011;4779;48.062;11.672;2023-05-10T02:49:49;0.70;;;0.70;;
9481;SDS011;4779;48.062;11.672;2023-05-10T02:52:18;0.60;;;0.60;;
9481;SDS011;4779;48.062;11.672;2023-05-10T02:54:51;0.98;;;0.70;;
9481;SDS011;4779;48.062;11.672;2023-05-10T02:57:22;0.70;;;0.70;;
9481;SDS011;4779;48.062;11.672;2023-05-10T02:59:53;0.60;;;0.60;;
9481;SDS011;4779;48.062;11.672;2023-05-10T03:02:20;1.20;;;0.50;;
9481;SDS011;4779;48.062;11.672;2023-05-10T03:04:47;0.60;;;0.60;;
9481;SDS011;4779;48.062;11.672;2023-05-10T03:07:14;0.43;;;0.43;;
9481;SDS011;4779;48.062;11.672;2023-05-10T03:09:41;1.88;;;0.68;;
9481;SDS011;4779;48.062;11.672;2023-05-10T03:12:11;0.50;;;0.50;;
9481;SDS011;4779;48.062;11.672;2023-05-10T03:14:47;0.40;;;0.40;;
9481;SDS011;4779;48.062;11.672;2023-05-10T03:17:29;1.00;;;0.50;;
9481;SDS011;4779;48.062;11.672;2023-05-10T03:20:03;0.40;;;0.40;;
9481;SDS011;4779;48.062;11.672;2023-05-10T03:22:34;0.57;;;0.50;;
9481;SDS011;4779;48.062;11.672;2023-05-10T03:25:04;1.10;;;0.50;;
9481;SDS011;4779;48.062;11.672;2023-05-10T03:27:36;0.60;;;0.60;;
9481;SDS011;4779;48.062;11.672;2023-05-10T03:30:05;0.47;;;0.47;;
9481;SDS011;4779;48.062;11.672;2023-05-10T03:32:36;0.63;;;0.63;;
9481;SDS011;4779;48.062;11.672;2023-05-10T03:35:05;0.50;;;0.40;;
9481;SDS011;4779;48.062;11.672;2023-05-10T03:37:33;0.43;;;0.30;;
9481;SDS011;4779;48.062;11.672;2023-05-10T03:40:00;1.13;;;0.40;;
9481;SDS011;4779;48.062;11.672;2023-05-10T03:42:27;0.40;;;0.40;;
9481;SDS011;4779;48.062;11.672;2023-05-10T03:44:56;3.23;;;0.60;;
9481;SDS011;4779;48.062;11.672;2023-05-10T03:47:23;0.47;;;0.45;;
9481;SDS011;4779;48.062;11.672;2023-05-10T03:49:50;0.85;;;0.45;;
9481;SDS011;4779;48.062;11.672;2023-05-10T03:52:16;1.73;;;0.60;;
9481;SDS011;4779;48.062;11.672;2023-05-10T03:54:44;0.50;;;0.50;;
9481;SDS011;4779;48.062;11.672;2023-05-10T03:57:10;0.70;;;0.68;;
9481;SDS011;4779;48.062;11.672;2023-05-10T03:59:37;1.10;;;0.50;;
9481;SDS011;4779;48.062;11.672;2023-05-10T04:02:06;0.40;;;0.40;;
9481;SDS011;4779;48.062;11.672;2023-05-10T04:04:32;0.83;;;0.30;;
9481;SDS011;4779;48.062;11.672;2023-05-10T04:06:59;0.73;;;0.50;;
9481;SDS011;4779;48.062;11.672;2023-05-10T04:09:26;0.40;;;0.40;;
9481;SDS011;4779;48.062;11.672;2023-05-10T04:11:53;1.17;;;0.50;;
9481;SDS011;4779;48.062;11.672;2023-05-10T04:14:20;0.65;;;0.60;;
9481;SDS011;4779;48.062;11.672;2023-05-10T04:16:47;0.60;;;0.60;;
9481;SDS011;4779;48.062;11.672;2023-05-10T04:19:15;0.33;;;0.30;;
9481;SDS011;4779;48.062;11.672;2023-05-10T04:21:42;0.80;;;0.70;;
9481;SDS011;4779;48.062;11.672;2023-05-10T04:24:09;0.80;;;0.70;;
9481;SDS011;4779;48.062;11.672;2023-05-10T04:26:35;1.35;;;0.45;;
9481;SDS011;4779;48.062;11.672;2023-05-10T04:29:02;0.43;;;0.43;;
9481;SDS011;4779;48.062;11.672;2023-05-10T04:31:29;1.50;;;0.70;;
9481;SDS011;4779;48.062;11.672;2023-05-10T04:33:56;0.50;;;0.40;;
9481;SDS011;4779;48.062;11.672;2023-05-10T04:36:24;0.80;;;0.40;;
9481;SDS011;4779;48.062;11.672;2023-05-10T04:38:51;0.67;;;0.30;;
9481;SDS011;4779;48.062;11.672;2023-05-10T04:41:18;2.33;;;0.40;;
9481;SDS011;4779;48.062;11.672;2023-05-10T04:43:45;2.10;;;0.40;;
9481;SDS011;4779;48.062;11.672;2023-05-10T04:46:14;0.45;;;0.32;;
9481;SDS011;4779;48.062;11.672;2023-05-10T04:48:40;1.35;;;0.60;;
9481;SDS011;4779;48.062;11.672;2023-05-10T04:51:07;0.30;;;0.30;;
9481;SDS011;4779;48.062;11.672;2023-05-10T04:53:36;1.27;;;0.47;;
9481;SDS011;4779;48.062;11.672;2023-05-10T04:56:03;0.67;;;0.30;;
9481;SDS011;4779;48.062;11.672;2023-05-10T04:58:30;1.63;;;0.40;;
9481;SDS011;4779;48.062;11.672;2023-05-10T05:00:57;0.30;;;0.30;;
9481;SDS011;4779;48.062;11.672;2023-05-10T05:03:30;0.40;;;0.40;;
9481;SDS011;4779;48.062;11.672;2023-05-10T05:05:57;0.93;;;0.50;;
9481;SDS011;4779;48.062;11.672;2023-05-10T05:08:24;1.50;;;0.40;;
9481;SDS011;4779;48.062;11.672;2023-05-10T05:10:52;0.30;;;0.30;;
9481;SDS011;4779;48.062;11.672;2023-05-10T05:13:19;0.40;;;0.40;;
9481;SDS011;4779;48.062;11.672;2023-05-10T05:15:46;0.33;;;0.33;;
9481;SDS011;4779;48.062;11.672;2023-05-10T05:18:13;1.70;;;0.20;;
9481;SDS011;4779;48.062;11.672;2023-05-10T05:20:40;1.23;;;0.30;;
9481;SDS011;4779;48.062;11.672;2023-05-10T05:23:07;0.30;;;0.30;;
9481;SDS011;4779;48.062;11.672;2023-05-10T05:25:33;1.30;;;0.40;;
9481;SDS011;4779;48.062;11.672;2023-05-10T05:28:02;0.67;;;0.30;;
9481;SDS011;4779;48.062;11.672;2023-05-10T05:30:29;0.60;;;0.30;;
9481;SDS011;4779;48.062;11.672;2023-05-10T05:32:56;1.23;;;0.43;;
9481;SDS011;4779;48.062;11.672;2023-05-10T05:35:22;0.77;;;0.30;;
9481;SDS011;4779;48.062;11.672;2023-05-10T05:37:50;0.50;;;0.50;;
9481;SDS011;4779;48.062;11.672;2023-05-10T05:40:16;1.13;;;0.40;;
9481;SDS011;4779;48.062;11.672;2023-05-10T05:42:43;0.77;;;0.30;;
9481;SDS011;4779;48.062;11.672;2023-05-10T05:45:11;2.40;;;0.40;;
9481;SDS011;4779;48.062;11.672;2023-05-10T05:47:39;0.30;;;0.30;;
9481;SDS011;4779;48.062;11.672;2023-05-10T05:50:06;0.30;;;0.30;;
9481;SDS011;4779;48.062;11.672;2023-05-10T05:52:33;1.23;;;0.40;;
9481;SDS011;4779;48.062;11.672;2023-05-10T05:55:01;1.60;;;0.50;;
9481;SDS011;4779;48.062;11.672;2023-05-10T05:57:27;1.10;;;0.37;;
9481;SDS011;4779;48.062;11.672;2023-05-10T05:59:54;1.40;;;0.30;;
9481;SDS011;4779;48.062;11.672;2023-05-10T06:02:23;1.40;;;0.30;;
9481;SDS011;4779;48.062;11.672;2023-05-10T06:04:50;1.73;;;0.50;;
9481;SDS011;4779;48.062;11.672;2023-05-10T06:07:17;0.57;;;0.40;;
9481;SDS011;4779;48.062;11.672;2023-05-10T06:09:43;1.77;;;0.50;;
9481;SDS011;4779;48.062;11.672;2023-05-10T06:12:10;1.03;;;0.30;;
9481;SDS011;4779;48.062;11.672;2023-05-10T06:14:37;0.87;;;0.60;;
9481;SDS011;4779;48.062;11.672;2023-05-10T06:17:04;1.17;;;0.40;;
9481;SDS011;4779;48.062;11.672;2023-05-10T06:19:33;2.57;;;0.60;;
9481;SDS011;4779;48.062;11.672;2023-05-10T06:22:01;1.67;;;0.60;;
9481;SDS011;4779;48.062;11.672;2023-05-10T06:24:28;0.83;;;0.50;;
9481;SDS011;4779;48.062;11.672;2023-05-10T06:26:55;2.70;;;0.53;;
9481;SDS011;4779;48.062;11.672;2023-05-10T06:29:25;1.50;;;0.60;;
9481;SDS011;4779;48.062;11.672;2023-05-10T06:31:52;1.10;;;0.70;;
9481;SDS011;4779;48.062;11.672;2023-05-10T06:34:19;2.50;;;0.60;;
9481;SDS011;4779;48.062;11.672;2023-05-10T06:36:47;0.63;;;0.50;;
9481;SDS011;4779;48.062;11.672;2023-05-10T06:39:14;0.50;;;0.50;;
9481;SDS011;4779;48.062;11.672;2023-05-10T06:41:42;1.87;;;0.50;;
9481;SDS011;4779;48.062;11.672;2023-05-10T06:44:08;1.75;;;0.70;;
9481;SDS011;4779;48.062;11.672;2023-05-10T06:46:35;1.73;;;0.88;;
9481;SDS011;4779;48.062;11.672;2023-05-10T06:49:02;1.75;;;0.77;;
9481;SDS011;4779;48.062;11.672;2023-05-10T06:51:29;1.33;;;0.50;;
9481;SDS011;4779;48.062;11.672;2023-05-10T06:53:58;0.80;;;0.50;;
9481;SDS011;4779;48.062;11.672;2023-05-10T06:56:25;2.35;;;0.65;;
9481;SDS011;4779;48.062;11.672;2023-05-10T06:58:52;3.15;;;0.70;;
9481;SDS011;4779;48.062;11.672;2023-05-10T07:01:18;1.63;;;0.65;;
9481;SDS011;4779;48.062;11.672;2023-05-10T07:03:45;1.45;;;0.68;;
9481;SDS011;4779;48.062;11.672;2023-05-10T07:06:12;0.82;;;0.60;;
9481;SDS011;4779;48.062;11.672;2023-05-10T07:08:39;1.65;;;0.90;;
9481;SDS011;4779;48.062;11.672;2023-05-10T07:11:07;1.60;;;1.15;;
9481;SDS011;4779;48.062;11.672;2023-05-10T07:13:35;1.85;;;0.75;;
9481;SDS011;4779;48.062;11.672;2023-05-10T07:16:04;4.38;;;0.70;;
9481;SDS011;4779;48.062;11.672;2023-05-10T07:18:31;0.80;;;0.80;;
9481;SDS011;4779;48.062;11.672;2023-05-10T07:20:58;1.65;;;0.90;;
9481;SDS011;4779;48.062;11.672;2023-05-10T07:23:25;0.98;;;0.77;;
9481;SDS011;4779;48.062;11.672;2023-05-10T07:25:52;1.02;;;0.93;;
9481;SDS011;4779;48.062;11.672;2023-05-10T07:28:21;1.48;;;1.30;;
9481;SDS011;4779;48.062;11.672;2023-05-10T07:30:48;1.88;;;1.15;;
9481;SDS011;4779;48.062;11.672;2023-05-10T07:33:15;3.08;;;1.00;;
9481;SDS011;4779;48.062;11.672;2023-05-10T07:35:42;1.63;;;1.48;;
9481;SDS011;4779;48.062;11.672;2023-05-10T07:38:09;1.60;;;0.70;;
9481;SDS011;4779;48.062;11.672;2023-05-10T07:40:37;3.40;;;1.05;;
9481;SDS011;4779;48.062;11.672;2023-05-10T07:43:04;0.82;;;0.70;;
9481;SDS011;4779;48.062;11.672;2023-05-10T07:45:33;1.67;;;0.88;;
9481;SDS011;4779;48.062;11.672;2023-05-10T07:48:00;1.50;;;0.98;;
9481;SDS011;4779;48.062;11.672;2023-05-10T07:50:29;1.58;;;0.63;;
9481;SDS011;4779;48.062;11.672;2023-05-10T07:52:56;0.82;;;0.80;;
9481;SDS011;4779;48.062;11.672;2023-05-10T07:55:24;0.98;;;0.80;;
9481;SDS011;4779;48.062;11.672;2023-05-10T07:57:51;2.05;;;1.00;;
9481;SDS011;4779;48.062;11.672;2023-05-10T08:00:18;0.63;;;0.63;;
9481;SDS011;4779;48.062;11.672;2023-05-10T08:02:47;1.48;;;1.30;;
9481;SDS011;4779;48.062;11.672;2023-05-10T08:05:14;1.42;;;1.08;;
9481;SDS011;4779;48.062;11.672;2023-05-10T08:07:41;2.17;;;0.90;;
9481;SDS011;4779;48.062;11.672;2023-05-10T08:10:08;0.85;;;0.82;;
9481;SDS011;4779;48.062;11.672;2023-05-10T08:12:37;1.10;;;1.00;;
9481;SDS011;4779;48.062;11.672;2023-05-10T08:15:04;1.05;;;0.70;;
9481;SDS011;4779;48.062;11.672;2023-05-10T08:17:32;0.85;;;0.80;;
9481;SDS011;4779;48.062;11.672;2023-05-10T08:20:00;2.35;;;1.02;;
9481;SDS011;4779;48.062;11.672;2023-05-10T08:22:27;0.95;;;0.80;;
9481;SDS011;4779;48.062;11.672;2023-05-10T08:24:54;2.85;;;0.68;;
9481;SDS011;4779;48.062;11.672;2023-05-10T08:27:21;1.08;;;0.70;;
9481;SDS011;4779;48.062;11.672;2023-05-10T08:29:48;0.88;;;0.80;;
9481;SDS011;4779;48.062;11.672;2023-05-10T08:32:15;0.95;;;0.80;;
9481;SDS011;4779;48.062;11.672;2023-05-10T08:34:42;0.60;;;0.60;;
9481;SDS011;4779;48.062;11.672;2023-05-10T08:37:10;1.67;;;0.80;;
9481;SDS011;4779;48.062;11.672;2023-05-10T08:39:38;0.98;;;0.60;;
9481;SDS011;4779;48.062;11.672;2023-05-10T08:42:05;2.38;;;0.85;;
9481;SDS011;4779;48.062;11.672;2023-05-10T08:44:34;0.90;;;0.90;;
9481;SDS011;4779;48.062;11.672;2023-05-10T08:47:04;0.50;;;0.50;;
9481;SDS011;4779;48.062;11.672;2023-05-10T08:49:32;0.85;;;0.63;;
9481;SDS011;4779;48.062;11.672;2023-05-10T08:52:01;0.93;;;0.50;;
9481;SDS011;4779;48.062;11.672;2023-05-10T08:54:32;0.65;;;0.50;;
9481;SDS011;4779;48.062;11.672;2023-05-10T08:56:59;0.55;;;0.50;;
9481;SDS011;4779;48.062;11.672;2023-05-10T08:59:26;0.75;;;0.70;;
9481;SDS011;4779;48.062;11.672;2023-05-10T09:01:53;1.67;;;0.60;;
9481;SDS011;4779;48.062;11.672;2023-05-10T09:04:23;2.97;;;1.15;;
9481;SDS011;4779;48.062;11.672;2023-05-10T09:06:51;0.85;;;0.85;;
9481;SDS011;4779;48.062;11.672;2023-05-10T09:09:18;1.55;;;0.80;;
9481;SDS011;4779;48.062;11.672;2023-05-10T09:11:47;1.65;;;0.90;;
9481;SDS011;4779;48.062;11.672;2023-05-10T09:14:14;1.58;;;0.85;;
9481;SDS011;4779;48.062;11.672;2023-05-10T09:16:42;1.00;;;1.00;;
9481;SDS011;4779;48.062;11.672;2023-05-10T09:19:09;1.60;;;0.77;;
9481;SDS011;4779;48.062;11.672;2023-05-10T09:21:37;1.13;;;0.93;;
9481;SDS011;4779;48.062;11.672;2023-05-10T09:24:04;2.65;;;0.93;;
9481;SDS011;4779;48.062;11.672;2023-05-10T09:26:35;2.33;;;0.93;;
9481;SDS011;4779;48.062;11.672;2023-05-10T09:29:14;0.85;;;0.80;;
9481;SDS011;4779;48.062;11.672;2023-05-10T09:31:45;1.20;;;0.90;;
9481;SDS011;4779;48.062;11.672;2023-05-10T09:34:16;0.80;;;0.80;;
9481;SDS011;4779;48.062;11.672;2023-05-10T09:36:53;0.80;;;0.80;;
9481;SDS011;4779;48.062;11.672;2023-05-10T09:39:29;1.08;;;1.00;;
9481;SDS011;4779;48.062;11.672;2023-05-10T09:41:57;2.50;;;0.88;;
9481;SDS011;4779;48.062;11.672;2023-05-10T09:44:27;1.13;;;0.77;;
9481;SDS011;4779;48.062;11.672;2023-05-10T09:46:54;1.60;;;0.80;;
9481;SDS011;4779;48.062;11.672;2023-05-10T09:49:20;0.80;;;0.80;;
9481;SDS011;4779;48.062;11.672;2023-05-10T09:51:57;1.13;;;1.00;;
9481;SDS011;4779;48.062;11.672;2023-05-10T09:54:27;1.08;;;0.90;;
9481;SDS011;4779;48.062;11.672;2023-05-10T09:56:54;1.20;;;1.10;;
9481;SDS011;4779;48.062;11.672;2023-05-10T09:59:21;1.42;;;1.00;;
9481;SDS011;4779;48.062;11.672;2023-05-10T10:01:51;1.13;;;1.02;;
9481;SDS011;4779;48.062;11.672;2023-05-10T10:04:19;1.45;;;0.68;;
9481;SDS011;4779;48.062;11.672;2023-05-10T10:06:46;1.75;;;0.90;;
9481;SDS011;4779;48.062;11.672;2023-05-10T10:09:24;0.73;;;0.60;;
9481;SDS011;4779;48.062;11.672;2023-05-10T10:11:51;1.13;;;0.95;;
9481;SDS011;4779;48.062;11.672;2023-05-10T10:14:18;1.88;;;0.77;;
9481;SDS011;4779;48.062;11.672;2023-05-10T10:16:46;0.90;;;0.90;;
9481;SDS011;4779;48.062;11.672;2023-05-10T10:19:14;0.60;;;0.52;;
9481;SDS011;4779;48.062;11.672;2023-05-10T10:21:41;1.08;;;0.70;;
9481;SDS011;4779;48.062;11.672;2023-05-10T10:24:08;0.75;;;0.60;;
9481;SDS011;4779;48.062;11.672;2023-05-10T10:26:35;1.23;;;0.90;;
9481;SDS011;4779;48.062;11.672;2023-05-10T10:29:05;0.88;;;0.70;;
9481;SDS011;4779;48.062;11.672;2023-05-10T10:31:45;0.57;;;0.57;;
9481;SDS011;4779;48.062;11.672;2023-05-10T10:34:20;1.08;;;0.50;;
9481;SDS011;4779;48.062;11.672;2023-05-10T10:36:53;1.13;;;0.80;;
9481;SDS011;4779;48.062;11.672;2023-05-10T10:39:21;1.15;;;0.90;;
9481;SDS011;4779;48.062;11.672;2023-05-10T10:41:50;0.80;;;0.80;;
9481;SDS011;4779;48.062;11.672;2023-05-10T10:44:25;1.33;;;0.60;;
9481;SDS011;4779;48.062;11.672;2023-05-10T10:47:06;2.50;;;0.82;;
9481;SDS011;4779;48.062;11.672;2023-05-10T10:49:49;3.45;;;1.23;;
9481;SDS011;4779;48.062;11.672;2023-05-10T10:52:21;0.75;;;0.75;;
9481;SDS011;4779;48.062;11.672;2023-05-10T10:54:52;1.10;;;0.70;;
9481;SDS011;4779;48.062;11.672;2023-05-10T10:57:20;1.85;;;0.88;;
9481;SDS011;4779;48.062;11.672;2023-05-10T10:59:47;1.63;;;0.80;;
9481;SDS011;4779;48.062;11.672;2023-05-10T11:02:33;0.82;;;0.70;;
9481;SDS011;4779;48.062;11.672;2023-05-10T11:08:00;2.75;;;0.60;;
9481;SDS011;4779;48.062;11.672;2023-05-10T11:10:33;1.17;;;0.90;;
9481;SDS011;4779;48.062;11.672;2023-05-10T11:13:01;1.35;;;0.63;;
9481;SDS011;4779;48.062;11.672;2023-05-10T11:15:38;1.10;;;0.70;;
9481;SDS011;4779;48.062;11.672;2023-05-10T11:18:21;0.82;;;0.70;;
9481;SDS011;4779;48.062;11.672;2023-05-10T11:21:00;1.98;;;0.70;;
9481;SDS011;4779;48.062;11.672;2023-05-10T11:23:48;2.30;;;0.80;;
9481;SDS011;4779;48.062;11.672;2023-05-10T11:26:30;2.15;;;1.00;;
9481;SDS011;4779;48.062;11.672;2023-05-10T11:29:07;1.25;;;1.05;;
9481;SDS011;4779;48.062;11.672;2023-05-10T11:31:44;1.33;;;1.00;;
9481;SDS011;4779;48.062;11.672;2023-05-10T11:34:27;3.13;;;1.20;;
9481;SDS011;4779;48.062;11.672;2023-05-10T11:37:04;1.50;;;0.88;;
9481;SDS011;4779;48.062;11.672;2023-05-10T11:39:31;1.95;;;1.45;;
9481;SDS011;4779;48.062;11.672;2023-05-10T11:41:59;3.10;;;1.60;;
9481;SDS011;4779;48.062;11.672;2023-05-10T11:44:28;1.75;;;1.08;;
9481;SDS011;4779;48.062;11.672;2023-05-10T11:46:57;3.60;;;1.30;;
9481;SDS011;4779;48.062;11.672;2023-05-10T11:57:26;2.63;;;1.60;;
9481;SDS011;4779;48.062;11.672;2023-05-10T11:59:53;2.08;;;1.27;;
9481;SDS011;4779;48.062;11.672;2023-05-10T12:02:24;2.25;;;1.27;;
9481;SDS011;4779;48.062;11.672;2023-05-10T12:04:51;4.38;;;1.10;;
9481;SDS011;4779;48.062;11.672;2023-05-10T12:07:18;2.25;;;1.27;;
9481;SDS011;4779;48.062;11.672;2023-05-10T12:12:37;2.70;;;1.30;;
9481;SDS011;4779;48.062;11.672;2023-05-10T12:15:11;1.50;;;1.23;;
9481;SDS011;4779;48.062;11.672;2023-05-10T12:17:44;1.70;;;1.48;;
9481;SDS011;4779;48.062;11.672;2023-05-10T12:20:15;2.27;;;1.50;;
9481;SDS011;4779;48.062;11.672;2023-05-10T12:22:46;7.78;;;1.10;;
9481;SDS011;4779;48.062;11.672;2023-05-10T12:28:13;1.95;;;0.80;;
9481;SDS011;4779;48.062;11.672;2023-05-10T12:31:02;1.40;;;0.75;;
9481;SDS011;4779;48.062;11.672;2023-05-10T12:36:24;1.92;;;1.30;;
9481;SDS011;4779;48.062;11.672;2023-05-10T12:38:51;4.60;;;1.88;;
9481;SDS011;4779;48.062;11.672;2023-05-10T12:42:19;10.13;;;5.13;;
9481;SDS011;4779;48.062;11.672;2023-05-10T12:45:08;3.10;;;1.60;;
9481;SDS011;4779;48.062;11.672;2023-05-10T12:48:02;1.52;;;1.20;;
9481;SDS011;4779;48.062;11.672;2023-05-10T12:50:35;3.38;;;1.38;;
9481;SDS011;4779;48.062;11.672;2023-05-10T12:53:06;2.05;;;1.00;;
9481;SDS011;4779;48.062;11.672;2023-05-10T12:55:34;1.65;;;1.15;;
9481;SDS011;4779;48.062;11.672;2023-05-10T12:58:02;2.25;;;1.40;;
9481;SDS011;4779;48.062;11.672;2023-05-10T13:00:30;1.67;;;0.80;;
9481;SDS011;4779;48.062;11.672;2023-05-10T13:03:22;1.02;;;0.95;;
9481;SDS011;4779;48.062;11.672;2023-05-10T13:05:49;0.93;;;0.93;;
9481;SDS011;4779;48.062;11.672;2023-05-10T13:08:29;2.72;;;0.90;;
9481;SDS011;4779;48.062;11.672;2023-05-10T13:11:08;0.85;;;0.60;;
9481;SDS011;4779;48.062;11.672;2023-05-10T13:13:36;2.53;;;0.70;;
9481;SDS011;4779;48.062;11.672;2023-05-10T13:16:03;1.58;;;0.80;;
9481;SDS011;4779;48.062;11.672;2023-05-10T13:18:31;1.52;;;0.95;;
9481;SDS011;4779;48.062;11.672;2023-05-10T13:20:58;1.65;;;0.98;;
9481;SDS011;4779;48.062;11.672;2023-05-10T13:23:24;1.20;;;1.10;;
9481;SDS011;4779;48.062;11.672;2023-05-10T13:25:51;1.52;;;0.98;;
9481;SDS011;4779;48.062;11.672;2023-05-10T13:28:18;0.82;;;0.80;;
9481;SDS011;4779;48.062;11.672;2023-05-10T13:30:46;0.77;;;0.77;;
9481;SDS011;4779;48.062;11.672;2023-05-10T13:33:13;2.45;;;0.88;;
9481;SDS011;4779;48.062;11.672;2023-05-10T13:35:40;0.93;;;0.80;;
9481;SDS011;4779;48.062;11.672;2023-05-10T13:38:07;3.55;;;0.90;;
9481;SDS011;4779;48.062;11.672;2023-05-10T13:40:34;2.80;;;1.27;;
9481;SDS011;4779;48.062;11.672;2023-05-10T13:43:01;2.15;;;1.00;;
9481;SDS011;4779;48.062;11.672;2023-05-10T13:45:28;1.70;;;0.90;;
9481;SDS011;4779;48.062;11.672;2023-05-10T13:47:56;0.80;;;0.80;;
9481;SDS011;4779;48.062;11.672;2023-05-10T13:50:23;3.15;;;0.88;;
9481;SDS011;4779;48.062;11.672;2023-05-10T13:52:50;0.95;;;0.80;;
9481;SDS011;4779;48.062;11.672;2023-05-10T13:55:17;1.58;;;0.90;;
9481;SDS011;4779;48.062;11.672;2023-05-10T13:57:47;1.10;;;1.00;;
9481;SDS011;4779;48.062;11.672;2023-05-10T14:00:14;2.75;;;1.08;;
9481;SDS011;4779;48.062;11.672;2023-05-10T14:02:41;1.33;;;1.00;;
9481;SDS011;4779;48.062;11.672;2023-05-10T14:05:10;1.67;;;1.10;;
9481;SDS011;4779;48.062;11.672;2023-05-10T14:07:37;1.20;;;1.00;;
9481;SDS011;4779;48.062;11.672;2023-05-10T14:10:05;1.13;;;1.10;;
9481;SDS011;4779;48.062;11.672;2023-05-10T14:12:32;3.50;;;1.40;;
9481;SDS011;4779;48.062;11.672;2023-05-10T14:14:59;3.08;;;1.00;;
9481;SDS011;4779;48.062;11.672;2023-05-10T14:17:26;1.17;;;1.07;;
9481;SDS011;4779;48.062;11.672;2023-05-10T14:19:53;1.10;;;1.00;;
9481;SDS011;4779;48.062;11.672;2023-05-10T14:22:21;1.20;;;1.10;;
9481;SDS011;4779;48.062;11.672;2023-05-10T14:24:48;1.50;;;1.08;;
9481;SDS011;4779;48.062;11.672;2023-05-10T14:27:15;1.58;;;1.20;;
9481;SDS011;4779;48.062;11.672;2023-05-10T14:29:42;2.20;;;1.25;;
9481;SDS011;4779;48.062;11.672;2023-05-10T14:32:08;1.95;;;1.48;;
9481;SDS011;4779;48.062;11.672;2023-05-10T14:34:35;1.42;;;1.17;;
9481;SDS011;4779;48.062;11.672;2023-05-10T14:37:02;1.20;;;1.10;;
9481;SDS011;4779;48.062;11.672;2023-05-10T14:39:31;1.20;;;1.10;;
9481;SDS011;4779;48.062;11.672;2023-05-10T14:41:58;1.08;;;1.00;;
9481;SDS011;4779;48.062;11.672;2023-05-10T14:44:25;1.13;;;1.02;;
9481;SDS011;4779;48.062;11.672;2023-05-10T14:46:52;1.27;;;1.10;;
9481;SDS011;4779;48.062;11.672;2023-05-10T14:49:20;1.43;;;0.87;;
9481;SDS011;4779;48.062;11.672;2023-05-10T14:51:49;2.78;;;1.10;;
9481;SDS011;4779;48.062;11.672;2023-05-10T14:54:16;0.85;;;0.80;;
9481;SDS011;4779;48.062;11.672;2023-05-10T14:56:44;1.85;;;0.80;;
9481;SDS011;4779;48.062;11.672;2023-05-10T14:59:13;0.75;;;0.75;;
9481;SDS011;4779;48.062;11.672;2023-05-10T15:01:40;0.93;;;0.82;;
9481;SDS011;4779;48.062;11.672;2023-05-10T15:04:08;0.60;;;0.60;;
9481;SDS011;4779;48.062;11.672;2023-05-10T15:06:34;0.95;;;0.60;;
9481;SDS011;4779;48.062;11.672;2023-05-10T15:09:02;0.60;;;0.52;;
9481;SDS011;4779;48.062;11.672;2023-05-10T15:11:29;0.85;;;0.70;;
9481;SDS011;4779;48.062;11.672;2023-05-10T15:13:57;1.10;;;0.60;;
9481;SDS011;4779;48.062;11.672;2023-05-10T15:16:24;1.25;;;0.70;;
9481;SDS011;4779;48.062;11.672;2023-05-10T15:18:51;1.10;;;0.70;;
9481;SDS011;4779;48.062;11.672;2023-05-10T15:21:23;1.63;;;0.70;;
9481;SDS011;4779;48.062;11.672;2023-05-10T15:23:54;1.13;;;1.03;;
9481;SDS011;4779;48.062;11.672;2023-05-10T15:26:21;1.17;;;0.90;;
9481;SDS011;4779;48.062;11.672;2023-05-10T15:28:49;1.08;;;0.77;;
9481;SDS011;4779;48.062;11.672;2023-05-10T15:31:17;1.07;;;1.00;;
9481;SDS011;4779;48.062;11.672;2023-05-10T15:33:50;1.37;;;0.93;;
9481;SDS011;4779;48.062;11.672;2023-05-10T15:36:23;1.27;;;0.70;;
9481;SDS011;4779;48.062;11.672;2023-05-10T15:38:50;1.10;;;0.90;;
9481;SDS011;4779;48.062;11.672;2023-05-10T15:41:17;1.70;;;1.17;;